sensor_id;sensor_type;location;lat;lon;timestamp;P1;durP1;ratioP1;P2;durP2;ratioP2
20535;SDS011;10426;49.420;8.390;2023-11-21T00:00:34;2.85;;;1.70;;
20535;SDS011;10426;49.420;8.390;2023-11-21T00:03:01;2.90;;;1.90;;
20535;SDS011;10426;49.420;8.390;2023-11-21T00:05:29;4.67;;;2.30;;
20535;SDS011;10426;49.420;8.390;2023-11-21T00:07:56;4.63;;;1.90;;
20535;SDS011;10426;49.420;8.390;2023-11-21T00:10:24;4.00;;;1.98;;
20535;SDS011;10426;49.420;8.390;2023-11-21T00:12:50;4.28;;;1.90;;
20535;SDS011;10426;49.420;8.390;2023-11-21T00:15:20;4.47;;;2.03;;
20535;SDS011;10426;49.420;8.390;2023-11-21T00:17:47;5.88;;;2.45;;
20535;SDS011;10426;49.420;8.390;2023-11-21T00:20:13;4.55;;;2.30;;
20535;SDS011;10426;49.420;8.390;2023-11-21T00:22:40;5.07;;;2.33;;
20535;SDS011;10426;49.420;8.390;2023-11-21T00:25:07;5.13;;;2.15;;
20535;SDS011;10426;49.420;8.390;2023-11-21T00:27:35;5.20;;;2.50;;
20535;SDS011;10426;49.420;8.390;2023-11-21T00:30:02;4.05;;;2.17;;
20535;SDS011;10426;49.420;8.390;2023-11-21T00:32:31;3.13;;;2.00;;
20535;SDS011;10426;49.420;8.390;2023-11-21T00:34:57;4.30;;;2.17;;
20535;SDS011;10426;49.420;8.390;2023-11-21T00:37:24;4.68;;;2.10;;
20535;SDS011;10426;49.420;8.390;2023-11-21T00:39:51;5.07;;;1.80;;
20535;SDS011;10426;49.420;8.390;2023-11-21T00:42:18;5.05;;;2.53;;
20535;SDS011;10426;49.420;8.390;2023-11-21T00:44:46;5.75;;;2.40;;
20535;SDS011;10426;49.420;8.390;2023-11-21T00:47:12;6.35;;;2.97;;
20535;SDS011;10426;49.420;8.390;2023-11-21T00:49:39;6.97;;;2.90;;
20535;SDS011;10426;49.420;8.390;2023-11-21T00:52:06;8.15;;;2.90;;
20535;SDS011;10426;49.420;8.390;2023-11-21T00:54:32;4.95;;;2.33;;
20535;SDS011;10426;49.420;8.390;2023-11-21T00:56:59;7.28;;;2.75;;
20535;SDS011;10426;49.420;8.390;2023-11-21T00:59:26;6.95;;;3.10;;
20535;SDS011;10426;49.420;8.390;2023-11-21T01:01:53;6.90;;;3.30;;
20535;SDS011;10426;49.420;8.390;2023-11-21T01:04:20;3.73;;;2.30;;
20535;SDS011;10426;49.420;8.390;2023-11-21T01:06:47;4.35;;;2.30;;
20535;SDS011;10426;49.420;8.390;2023-11-21T01:09:13;7.75;;;3.05;;
20535;SDS011;10426;49.420;8.390;2023-11-21T01:11:42;8.10;;;3.13;;
20535;SDS011;10426;49.420;8.390;2023-11-21T01:14:09;5.55;;;2.75;;
20535;SDS011;10426;49.420;8.390;2023-11-21T01:16:36;7.15;;;3.33;;
20535;SDS011;10426;49.420;8.390;2023-11-21T01:19:04;6.00;;;2.90;;
20535;SDS011;10426;49.420;8.390;2023-11-21T01:21:31;4.50;;;2.20;;
20535;SDS011;10426;49.420;8.390;2023-11-21T01:23:59;4.60;;;2.10;;
20535;SDS011;10426;49.420;8.390;2023-11-21T01:26:25;3.47;;;1.93;;
20535;SDS011;10426;49.420;8.390;2023-11-21T01:28:52;5.55;;;2.47;;
20535;SDS011;10426;49.420;8.390;2023-11-21T01:31:20;6.70;;;2.85;;
20535;SDS011;10426;49.420;8.390;2023-11-21T01:33:46;5.00;;;2.43;;
20535;SDS011;10426;49.420;8.390;2023-11-21T01:36:15;6.07;;;2.53;;
20535;SDS011;10426;49.420;8.390;2023-11-21T01:38:41;7.55;;;2.83;;
20535;SDS011;10426;49.420;8.390;2023-11-21T01:41:08;4.50;;;2.08;;
20535;SDS011;10426;49.420;8.390;2023-11-21T01:43:36;4.05;;;2.35;;
20535;SDS011;10426;49.420;8.390;2023-11-21T01:46:03;5.50;;;2.75;;
20535;SDS011;10426;49.420;8.390;2023-11-21T01:48:31;3.67;;;2.15;;
20535;SDS011;10426;49.420;8.390;2023-11-21T01:50:58;7.63;;;2.70;;
20535;SDS011;10426;49.420;8.390;2023-11-21T01:53:26;6.75;;;2.60;;
20535;SDS011;10426;49.420;8.390;2023-11-21T01:55:53;6.60;;;2.33;;
20535;SDS011;10426;49.420;8.390;2023-11-21T01:58:21;4.85;;;2.50;;
20535;SDS011;10426;49.420;8.390;2023-11-21T02:00:48;5.15;;;2.20;;
20535;SDS011;10426;49.420;8.390;2023-11-21T02:03:16;5.57;;;2.50;;
20535;SDS011;10426;49.420;8.390;2023-11-21T02:05:43;6.60;;;2.80;;
20535;SDS011;10426;49.420;8.390;2023-11-21T02:08:09;4.60;;;2.50;;
20535;SDS011;10426;49.420;8.390;2023-11-21T02:10:37;5.40;;;2.60;;
20535;SDS011;10426;49.420;8.390;2023-11-21T02:13:04;6.70;;;3.05;;
20535;SDS011;10426;49.420;8.390;2023-11-21T02:15:31;4.85;;;2.42;;
20535;SDS011;10426;49.420;8.390;2023-11-21T02:17:58;4.80;;;2.27;;
20535;SDS011;10426;49.420;8.390;2023-11-21T02:20:26;3.63;;;2.03;;
20535;SDS011;10426;49.420;8.390;2023-11-21T02:22:56;3.63;;;2.10;;
20535;SDS011;10426;49.420;8.390;2023-11-21T02:25:24;4.30;;;1.90;;
20535;SDS011;10426;49.420;8.390;2023-11-21T02:27:51;3.05;;;1.85;;
20535;SDS011;10426;49.420;8.390;2023-11-21T02:30:20;3.20;;;1.95;;
20535;SDS011;10426;49.420;8.390;2023-11-21T02:32:47;4.17;;;1.70;;
20535;SDS011;10426;49.420;8.390;2023-11-21T02:35:13;3.63;;;1.65;;
20535;SDS011;10426;49.420;8.390;2023-11-21T02:37:41;4.80;;;1.70;;
20535;SDS011;10426;49.420;8.390;2023-11-21T02:40:10;4.85;;;1.70;;
20535;SDS011;10426;49.420;8.390;2023-11-21T02:42:37;2.50;;;1.50;;
20535;SDS011;10426;49.420;8.390;2023-11-21T02:45:05;3.33;;;1.77;;
20535;SDS011;10426;49.420;8.390;2023-11-21T02:47:32;4.85;;;1.70;;
20535;SDS011;10426;49.420;8.390;2023-11-21T02:49:59;3.90;;;1.80;;
20535;SDS011;10426;49.420;8.390;2023-11-21T02:52:26;3.30;;;1.67;;
20535;SDS011;10426;49.420;8.390;2023-11-21T02:54:52;2.75;;;1.75;;
20535;SDS011;10426;49.420;8.390;2023-11-21T02:57:20;4.27;;;1.60;;
20535;SDS011;10426;49.420;8.390;2023-11-21T02:59:46;2.05;;;1.58;;
20535;SDS011;10426;49.420;8.390;2023-11-21T03:02:12;3.30;;;1.77;;
20535;SDS011;10426;49.420;8.390;2023-11-21T03:04:39;4.22;;;1.60;;
20535;SDS011;10426;49.420;8.390;2023-11-21T03:07:06;3.60;;;1.70;;
20535;SDS011;10426;49.420;8.390;2023-11-21T03:09:32;3.10;;;1.63;;
20535;SDS011;10426;49.420;8.390;2023-11-21T03:11:59;3.80;;;1.60;;
20535;SDS011;10426;49.420;8.390;2023-11-21T03:14:27;3.00;;;1.75;;
20535;SDS011;10426;49.420;8.390;2023-11-21T03:16:54;3.47;;;1.73;;
20535;SDS011;10426;49.420;8.390;2023-11-21T03:19:20;2.57;;;1.50;;
20535;SDS011;10426;49.420;8.390;2023-11-21T03:21:47;3.40;;;1.67;;
20535;SDS011;10426;49.420;8.390;2023-11-21T03:24:13;3.30;;;1.70;;
20535;SDS011;10426;49.420;8.390;2023-11-21T03:26:44;3.15;;;1.52;;
20535;SDS011;10426;49.420;8.390;2023-11-21T03:29:10;2.67;;;1.50;;
20535;SDS011;10426;49.420;8.390;2023-11-21T03:31:38;3.90;;;1.53;;
20535;SDS011;10426;49.420;8.390;2023-11-21T03:34:05;1.73;;;1.63;;
20535;SDS011;10426;49.420;8.390;2023-11-21T03:36:31;3.78;;;1.90;;
20535;SDS011;10426;49.420;8.390;2023-11-21T03:38:58;2.30;;;1.48;;
20535;SDS011;10426;49.420;8.390;2023-11-21T03:41:25;2.28;;;1.42;;
20535;SDS011;10426;49.420;8.390;2023-11-21T03:43:51;2.10;;;1.52;;
20535;SDS011;10426;49.420;8.390;2023-11-21T03:46:18;2.42;;;1.50;;
20535;SDS011;10426;49.420;8.390;2023-11-21T03:48:46;1.85;;;1.50;;
20535;SDS011;10426;49.420;8.390;2023-11-21T03:51:12;2.85;;;1.60;;
20535;SDS011;10426;49.420;8.390;2023-11-21T03:53:39;3.15;;;1.50;;
20535;SDS011;10426;49.420;8.390;2023-11-21T03:56:06;2.33;;;1.45;;
20535;SDS011;10426;49.420;8.390;2023-11-21T03:58:33;4.38;;;1.50;;
20535;SDS011;10426;49.420;8.390;2023-11-21T04:00:59;3.08;;;1.65;;
20535;SDS011;10426;49.420;8.390;2023-11-21T04:03:27;6.53;;;1.95;;
20535;SDS011;10426;49.420;8.390;2023-11-21T04:05:55;2.00;;;1.33;;
20535;SDS011;10426;49.420;8.390;2023-11-21T04:08:21;2.20;;;1.40;;
20535;SDS011;10426;49.420;8.390;2023-11-21T04:10:48;2.53;;;1.40;;
20535;SDS011;10426;49.420;8.390;2023-11-21T04:13:14;1.67;;;1.52;;
20535;SDS011;10426;49.420;8.390;2023-11-21T04:15:41;2.08;;;1.50;;
20535;SDS011;10426;49.420;8.390;2023-11-21T04:18:08;2.30;;;1.30;;
20535;SDS011;10426;49.420;8.390;2023-11-21T04:20:34;2.20;;;1.50;;
20535;SDS011;10426;49.420;8.390;2023-11-21T04:23:02;2.17;;;1.40;;
20535;SDS011;10426;49.420;8.390;2023-11-21T04:25:29;3.80;;;1.70;;
20535;SDS011;10426;49.420;8.390;2023-11-21T04:27:56;2.75;;;1.48;;
20535;SDS011;10426;49.420;8.390;2023-11-21T04:30:22;1.93;;;1.50;;
20535;SDS011;10426;49.420;8.390;2023-11-21T04:32:49;3.72;;;1.30;;
20535;SDS011;10426;49.420;8.390;2023-11-21T04:35:16;1.57;;;1.30;;
20535;SDS011;10426;49.420;8.390;2023-11-21T04:37:43;1.50;;;1.40;;
20535;SDS011;10426;49.420;8.390;2023-11-21T04:40:11;1.88;;;1.33;;
20535;SDS011;10426;49.420;8.390;2023-11-21T04:42:38;2.45;;;1.30;;
20535;SDS011;10426;49.420;8.390;2023-11-21T04:45:05;1.40;;;1.30;;
20535;SDS011;10426;49.420;8.390;2023-11-21T04:47:34;3.35;;;1.45;;
20535;SDS011;10426;49.420;8.390;2023-11-21T04:50:01;1.67;;;1.40;;
20535;SDS011;10426;49.420;8.390;2023-11-21T04:52:28;1.52;;;1.40;;
20535;SDS011;10426;49.420;8.390;2023-11-21T04:54:55;4.63;;;1.60;;
20535;SDS011;10426;49.420;8.390;2023-11-21T04:57:25;3.38;;;1.30;;
20535;SDS011;10426;49.420;8.390;2023-11-21T04:59:51;1.58;;;1.48;;
20535;SDS011;10426;49.420;8.390;2023-11-21T05:02:18;2.53;;;1.40;;
20535;SDS011;10426;49.420;8.390;2023-11-21T05:04:46;1.40;;;1.30;;
20535;SDS011;10426;49.420;8.390;2023-11-21T05:07:13;1.50;;;1.40;;
20535;SDS011;10426;49.420;8.390;2023-11-21T05:09:40;2.10;;;1.75;;
20535;SDS011;10426;49.420;8.390;2023-11-21T05:12:09;2.00;;;1.60;;
20535;SDS011;10426;49.420;8.390;2023-11-21T05:14:37;1.63;;;1.45;;
20535;SDS011;10426;49.420;8.390;2023-11-21T05:17:04;3.08;;;1.65;;
20535;SDS011;10426;49.420;8.390;2023-11-21T05:19:30;1.77;;;1.65;;
20535;SDS011;10426;49.420;8.390;2023-11-21T05:21:58;1.70;;;1.40;;
20535;SDS011;10426;49.420;8.390;2023-11-21T05:24:25;1.60;;;1.50;;
20535;SDS011;10426;49.420;8.390;2023-11-21T05:26:52;1.58;;;1.45;;
20535;SDS011;10426;49.420;8.390;2023-11-21T05:29:19;4.25;;;1.60;;
20535;SDS011;10426;49.420;8.390;2023-11-21T05:31:47;3.05;;;1.70;;
20535;SDS011;10426;49.420;8.390;2023-11-21T05:34:13;2.83;;;1.60;;
20535;SDS011;10426;49.420;8.390;2023-11-21T05:36:42;1.70;;;1.60;;
20535;SDS011;10426;49.420;8.390;2023-11-21T05:39:09;2.10;;;1.70;;
20535;SDS011;10426;49.420;8.390;2023-11-21T05:41:36;2.23;;;1.80;;
20535;SDS011;10426;49.420;8.390;2023-11-21T05:44:03;2.28;;;1.83;;
20535;SDS011;10426;49.420;8.390;2023-11-21T05:46:30;2.35;;;1.60;;
20535;SDS011;10426;49.420;8.390;2023-11-21T05:48:58;1.88;;;1.70;;
20535;SDS011;10426;49.420;8.390;2023-11-21T05:51:25;2.70;;;2.40;;
20535;SDS011;10426;49.420;8.390;2023-11-21T05:53:52;3.00;;;2.80;;
20535;SDS011;10426;49.420;8.390;2023-11-21T05:56:18;3.22;;;2.50;;
20535;SDS011;10426;49.420;8.390;2023-11-21T05:58:45;3.38;;;3.08;;
20535;SDS011;10426;49.420;8.390;2023-11-21T06:01:11;3.03;;;2.80;;
20535;SDS011;10426;49.420;8.390;2023-11-21T06:03:38;4.25;;;2.67;;
20535;SDS011;10426;49.420;8.390;2023-11-21T06:06:06;2.80;;;2.30;;
20535;SDS011;10426;49.420;8.390;2023-11-21T06:08:33;2.83;;;2.42;;
20535;SDS011;10426;49.420;8.390;2023-11-21T06:11:00;2.65;;;2.45;;
20535;SDS011;10426;49.420;8.390;2023-11-21T06:13:26;2.33;;;2.20;;
20535;SDS011;10426;49.420;8.390;2023-11-21T06:15:53;3.10;;;2.50;;
20535;SDS011;10426;49.420;8.390;2023-11-21T06:18:20;4.10;;;3.10;;
20535;SDS011;10426;49.420;8.390;2023-11-21T06:20:47;3.10;;;2.90;;
20535;SDS011;10426;49.420;8.390;2023-11-21T06:23:15;3.38;;;2.97;;
20535;SDS011;10426;49.420;8.390;2023-11-21T06:25:41;3.40;;;3.17;;
20535;SDS011;10426;49.420;8.390;2023-11-21T06:28:08;3.45;;;3.15;;
20535;SDS011;10426;49.420;8.390;2023-11-21T06:30:35;3.67;;;3.47;;
20535;SDS011;10426;49.420;8.390;2023-11-21T06:33:02;3.87;;;3.60;;
20535;SDS011;10426;49.420;8.390;2023-11-21T06:35:28;4.20;;;3.80;;
20535;SDS011;10426;49.420;8.390;2023-11-21T06:37:58;3.87;;;3.57;;
20535;SDS011;10426;49.420;8.390;2023-11-21T06:40:26;4.05;;;3.80;;
20535;SDS011;10426;49.420;8.390;2023-11-21T06:42:52;4.60;;;4.22;;
20535;SDS011;10426;49.420;8.390;2023-11-21T06:45:19;4.53;;;4.20;;
20535;SDS011;10426;49.420;8.390;2023-11-21T06:47:47;4.40;;;4.10;;
20535;SDS011;10426;49.420;8.390;2023-11-21T06:50:13;5.45;;;4.50;;
20535;SDS011;10426;49.420;8.390;2023-11-21T06:52:40;4.60;;;4.30;;
20535;SDS011;10426;49.420;8.390;2023-11-21T06:55:07;5.47;;;5.05;;
20535;SDS011;10426;49.420;8.390;2023-11-21T06:57:36;7.20;;;6.50;;
20535;SDS011;10426;49.420;8.390;2023-11-21T07:00:04;6.75;;;6.15;;
20535;SDS011;10426;49.420;8.390;2023-11-21T07:02:33;7.32;;;6.60;;
20535;SDS011;10426;49.420;8.390;2023-11-21T07:05:00;6.72;;;6.20;;
20535;SDS011;10426;49.420;8.390;2023-11-21T07:07:26;6.90;;;6.30;;
20535;SDS011;10426;49.420;8.390;2023-11-21T07:09:53;6.93;;;6.43;;
20535;SDS011;10426;49.420;8.390;2023-11-21T07:12:20;6.90;;;6.30;;
20535;SDS011;10426;49.420;8.390;2023-11-21T07:14:50;6.63;;;6.13;;
20535;SDS011;10426;49.420;8.390;2023-11-21T07:17:16;7.75;;;7.05;;
20535;SDS011;10426;49.420;8.390;2023-11-21T07:19:42;7.20;;;6.60;;
20535;SDS011;10426;49.420;8.390;2023-11-21T07:22:09;7.93;;;7.22;;
20535;SDS011;10426;49.420;8.390;2023-11-21T07:24:36;7.78;;;7.10;;
20535;SDS011;10426;49.420;8.390;2023-11-21T07:27:03;7.30;;;6.70;;
20535;SDS011;10426;49.420;8.390;2023-11-21T07:29:30;7.57;;;6.97;;
20535;SDS011;10426;49.420;8.390;2023-11-21T07:31:58;8.80;;;7.90;;
20535;SDS011;10426;49.420;8.390;2023-11-21T07:34:26;8.48;;;7.78;;
20535;SDS011;10426;49.420;8.390;2023-11-21T07:36:52;8.10;;;7.40;;
20535;SDS011;10426;49.420;8.390;2023-11-21T07:39:19;8.43;;;7.72;;
20535;SDS011;10426;49.420;8.390;2023-11-21T07:41:46;8.57;;;7.88;;
20535;SDS011;10426;49.420;8.390;2023-11-21T07:44:15;8.82;;;8.02;;
20535;SDS011;10426;49.420;8.390;2023-11-21T07:46:42;9.40;;;8.50;;
20535;SDS011;10426;49.420;8.390;2023-11-21T07:49:11;10.02;;;8.88;;
20535;SDS011;10426;49.420;8.390;2023-11-21T07:51:40;9.70;;;8.70;;
20535;SDS011;10426;49.420;8.390;2023-11-21T07:54:06;9.80;;;8.80;;
20535;SDS011;10426;49.420;8.390;2023-11-21T07:56:33;9.83;;;8.93;;
20535;SDS011;10426;49.420;8.390;2023-11-21T07:59:00;10.00;;;9.00;;
20535;SDS011;10426;49.420;8.390;2023-11-21T08:01:26;10.98;;;9.35;;
20535;SDS011;10426;49.420;8.390;2023-11-21T08:03:53;10.20;;;9.30;;
20535;SDS011;10426;49.420;8.390;2023-11-21T08:06:23;11.00;;;9.90;;
20535;SDS011;10426;49.420;8.390;2023-11-21T08:08:51;10.67;;;9.63;;
20535;SDS011;10426;49.420;8.390;2023-11-21T08:11:17;10.65;;;9.55;;
20535;SDS011;10426;49.420;8.390;2023-11-21T08:13:44;11.23;;;9.37;;
20535;SDS011;10426;49.420;8.390;2023-11-21T08:16:12;10.40;;;9.43;;
20535;SDS011;10426;49.420;8.390;2023-11-21T08:18:38;9.80;;;8.60;;
20535;SDS011;10426;49.420;8.390;2023-11-21T08:21:05;12.83;;;11.13;;
20535;SDS011;10426;49.420;8.390;2023-11-21T08:23:34;9.50;;;7.88;;
20535;SDS011;10426;49.420;8.390;2023-11-21T08:26:01;12.80;;;10.75;;
20535;SDS011;10426;49.420;8.390;2023-11-21T08:28:28;7.97;;;7.28;;
20535;SDS011;10426;49.420;8.390;2023-11-21T08:30:55;15.48;;;12.18;;
20535;SDS011;10426;49.420;8.390;2023-11-21T08:33:22;7.80;;;7.00;;
20535;SDS011;10426;49.420;8.390;2023-11-21T08:35:48;7.80;;;7.00;;
20535;SDS011;10426;49.420;8.390;2023-11-21T08:38:15;5.60;;;5.20;;
20535;SDS011;10426;49.420;8.390;2023-11-21T08:40:44;4.78;;;4.40;;
20535;SDS011;10426;49.420;8.390;2023-11-21T08:43:11;4.10;;;3.80;;
20535;SDS011;10426;49.420;8.390;2023-11-21T08:45:37;3.88;;;3.58;;
20535;SDS011;10426;49.420;8.390;2023-11-21T08:48:04;3.10;;;2.90;;
20535;SDS011;10426;49.420;8.390;2023-11-21T08:50:31;2.55;;;2.38;;
20535;SDS011;10426;49.420;8.390;2023-11-21T08:52:58;2.20;;;2.10;;
20535;SDS011;10426;49.420;8.390;2023-11-21T08:55:24;2.28;;;2.17;;
20535;SDS011;10426;49.420;8.390;2023-11-21T08:57:52;2.23;;;2.13;;
20535;SDS011;10426;49.420;8.390;2023-11-21T09:00:19;2.67;;;2.47;;
20535;SDS011;10426;49.420;8.390;2023-11-21T09:02:46;2.90;;;2.70;;
20535;SDS011;10426;49.420;8.390;2023-11-21T09:05:13;3.20;;;2.90;;
20535;SDS011;10426;49.420;8.390;2023-11-21T09:07:40;3.30;;;3.10;;
20535;SDS011;10426;49.420;8.390;2023-11-21T09:10:07;2.75;;;2.53;;
20535;SDS011;10426;49.420;8.390;2023-11-21T09:12:34;2.60;;;2.40;;
20535;SDS011;10426;49.420;8.390;2023-11-21T09:15:04;2.40;;;2.30;;
20535;SDS011;10426;49.420;8.390;2023-11-21T09:17:31;3.13;;;2.60;;
20535;SDS011;10426;49.420;8.390;2023-11-21T09:19:58;3.85;;;3.50;;
20535;SDS011;10426;49.420;8.390;2023-11-21T09:22:24;3.78;;;3.47;;
20535;SDS011;10426;49.420;8.390;2023-11-21T09:24:51;4.15;;;3.75;;
20535;SDS011;10426;49.420;8.390;2023-11-21T09:27:18;5.20;;;4.80;;
20535;SDS011;10426;49.420;8.390;2023-11-21T09:29:45;4.97;;;4.57;;
20535;SDS011;10426;49.420;8.390;2023-11-21T09:32:14;5.23;;;4.77;;
20535;SDS011;10426;49.420;8.390;2023-11-21T09:34:41;5.30;;;4.85;;
20535;SDS011;10426;49.420;8.390;2023-11-21T09:37:08;5.65;;;5.18;;
20535;SDS011;10426;49.420;8.390;2023-11-21T09:39:35;5.82;;;5.28;;
20535;SDS011;10426;49.420;8.390;2023-11-21T09:42:04;6.73;;;6.13;;
20535;SDS011;10426;49.420;8.390;2023-11-21T09:44:32;6.93;;;6.30;;
20535;SDS011;10426;49.420;8.390;2023-11-21T09:47:01;7.55;;;6.85;;
20535;SDS011;10426;49.420;8.390;2023-11-21T09:49:29;6.80;;;6.20;;
20535;SDS011;10426;49.420;8.390;2023-11-21T09:51:59;7.60;;;6.90;;
20535;SDS011;10426;49.420;8.390;2023-11-21T09:54:28;7.45;;;6.75;;
20535;SDS011;10426;49.420;8.390;2023-11-21T09:56:57;8.02;;;7.22;;
20535;SDS011;10426;49.420;8.390;2023-11-21T09:59:23;7.88;;;7.28;;
20535;SDS011;10426;49.420;8.390;2023-11-21T10:01:50;9.35;;;7.60;;
20535;SDS011;10426;49.420;8.390;2023-11-21T10:04:17;8.77;;;7.97;;
20535;SDS011;10426;49.420;8.390;2023-11-21T10:06:46;8.68;;;7.85;;
20535;SDS011;10426;49.420;8.390;2023-11-21T10:09:14;9.45;;;8.57;;
20535;SDS011;10426;49.420;8.390;2023-11-21T10:11:42;9.93;;;8.93;;
20535;SDS011;10426;49.420;8.390;2023-11-21T10:14:10;10.23;;;9.23;;
20535;SDS011;10426;49.420;8.390;2023-11-21T10:16:38;10.32;;;9.23;;
20535;SDS011;10426;49.420;8.390;2023-11-21T10:19:05;10.32;;;9.43;;
20535;SDS011;10426;49.420;8.390;2023-11-21T10:21:32;10.27;;;9.15;;
20535;SDS011;10426;49.420;8.390;2023-11-21T10:23:59;9.83;;;8.93;;
20535;SDS011;10426;49.420;8.390;2023-11-21T10:26:26;9.73;;;8.73;;
20535;SDS011;10426;49.420;8.390;2023-11-21T10:28:56;10.93;;;9.10;;
20535;SDS011;10426;49.420;8.390;2023-11-21T10:31:23;9.82;;;8.82;;
20535;SDS011;10426;49.420;8.390;2023-11-21T10:33:50;8.70;;;7.90;;
20535;SDS011;10426;49.420;8.390;2023-11-21T10:36:24;8.68;;;7.97;;
20535;SDS011;10426;49.420;8.390;2023-11-21T10:38:51;10.25;;;8.07;;
20535;SDS011;10426;49.420;8.390;2023-11-21T10:41:20;9.38;;;8.45;;
20535;SDS011;10426;49.420;8.390;2023-11-21T10:43:46;10.18;;;8.70;;
20535;SDS011;10426;49.420;8.390;2023-11-21T10:46:14;10.23;;;8.25;;
20535;SDS011;10426;49.420;8.390;2023-11-21T10:48:40;8.43;;;7.63;;
20535;SDS011;10426;49.420;8.390;2023-11-21T10:51:08;8.03;;;6.80;;
20535;SDS011;10426;49.420;8.390;2023-11-21T10:53:38;6.97;;;6.35;;
20535;SDS011;10426;49.420;8.390;2023-11-21T10:56:05;6.68;;;6.07;;
20535;SDS011;10426;49.420;8.390;2023-11-21T10:58:34;6.60;;;6.00;;
20535;SDS011;10426;49.420;8.390;2023-11-21T11:01:02;6.93;;;5.78;;
20535;SDS011;10426;49.420;8.390;2023-11-21T11:03:30;5.25;;;4.85;;
20535;SDS011;10426;49.420;8.390;2023-11-21T11:05:58;5.80;;;5.30;;
20535;SDS011;10426;49.420;8.390;2023-11-21T11:08:25;9.80;;;8.00;;
20535;SDS011;10426;49.420;8.390;2023-11-21T11:10:53;11.23;;;9.25;;
20535;SDS011;10426;49.420;8.390;2023-11-21T11:13:19;16.73;;;12.25;;
20535;SDS011;10426;49.420;8.390;2023-11-21T11:15:48;28.38;;;19.35;;
20535;SDS011;10426;49.420;8.390;2023-11-21T11:18:15;8.80;;;7.85;;
20535;SDS011;10426;49.420;8.390;2023-11-21T11:20:42;11.38;;;10.02;;
20535;SDS011;10426;49.420;8.390;2023-11-21T11:23:17;12.10;;;9.40;;
20535;SDS011;10426;49.420;8.390;2023-11-21T11:25:53;13.65;;;10.52;;
20535;SDS011;10426;49.420;8.390;2023-11-21T11:28:27;7.47;;;6.82;;
20535;SDS011;10426;49.420;8.390;2023-11-21T11:31:00;6.97;;;6.27;;
20535;SDS011;10426;49.420;8.390;2023-11-21T11:33:31;6.40;;;5.70;;
20535;SDS011;10426;49.420;8.390;2023-11-21T11:36:03;6.30;;;5.70;;
20535;SDS011;10426;49.420;8.390;2023-11-21T11:38:31;6.07;;;5.57;;
20535;SDS011;10426;49.420;8.390;2023-11-21T11:41:00;5.70;;;5.20;;
20535;SDS011;10426;49.420;8.390;2023-11-21T11:43:28;5.78;;;5.20;;
20535;SDS011;10426;49.420;8.390;2023-11-21T11:45:56;5.85;;;5.03;;
20535;SDS011;10426;49.420;8.390;2023-11-21T11:48:25;5.50;;;5.00;;
20535;SDS011;10426;49.420;8.390;2023-11-21T11:51:01;5.35;;;4.80;;
20535;SDS011;10426;49.420;8.390;2023-11-21T11:53:33;5.70;;;5.10;;
20535;SDS011;10426;49.420;8.390;2023-11-21T11:56:12;6.10;;;5.50;;
20535;SDS011;10426;49.420;8.390;2023-11-21T11:58:46;6.20;;;5.60;;
20535;SDS011;10426;49.420;8.390;2023-11-21T12:01:13;5.15;;;4.68;;
20535;SDS011;10426;49.420;8.390;2023-11-21T12:03:41;6.28;;;5.00;;
20535;SDS011;10426;49.420;8.390;2023-11-21T12:06:08;6.88;;;4.70;;
20535;SDS011;10426;49.420;8.390;2023-11-21T12:08:37;5.28;;;4.45;;
20535;SDS011;10426;49.420;8.390;2023-11-21T12:11:04;4.72;;;4.25;;
20535;SDS011;10426;49.420;8.390;2023-11-21T12:13:31;4.75;;;4.32;;
20535;SDS011;10426;49.420;8.390;2023-11-21T12:15:57;4.75;;;4.25;;
20535;SDS011;10426;49.420;8.390;2023-11-21T12:18:24;4.20;;;3.80;;
20535;SDS011;10426;49.420;8.390;2023-11-21T12:20:53;4.30;;;3.90;;
20535;SDS011;10426;49.420;8.390;2023-11-21T12:23:19;4.50;;;4.07;;
20535;SDS011;10426;49.420;8.390;2023-11-21T12:25:46;3.65;;;3.35;;
20535;SDS011;10426;49.420;8.390;2023-11-21T12:28:13;3.40;;;3.10;;
20535;SDS011;10426;49.420;8.390;2023-11-21T12:30:39;3.22;;;2.90;;
20535;SDS011;10426;49.420;8.390;2023-11-21T12:33:06;4.53;;;2.58;;
20535;SDS011;10426;49.420;8.390;2023-11-21T12:35:35;3.50;;;2.60;;
20535;SDS011;10426;49.420;8.390;2023-11-21T12:38:03;2.60;;;2.40;;
20535;SDS011;10426;49.420;8.390;2023-11-21T12:40:30;2.75;;;2.40;;
20535;SDS011;10426;49.420;8.390;2023-11-21T12:42:57;2.50;;;2.40;;
20535;SDS011;10426;49.420;8.390;2023-11-21T12:45:25;2.60;;;2.40;;
20535;SDS011;10426;49.420;8.390;2023-11-21T12:47:54;4.38;;;2.70;;
20535;SDS011;10426;49.420;8.390;2023-11-21T12:50:22;16.63;;;11.88;;
20535;SDS011;10426;49.420;8.390;2023-11-21T12:52:50;5.47;;;3.70;;
20535;SDS011;10426;49.420;8.390;2023-11-21T12:55:20;8.68;;;6.43;;
20535;SDS011;10426;49.420;8.390;2023-11-21T12:57:48;3.23;;;2.90;;
20535;SDS011;10426;49.420;8.390;2023-11-21T13:00:15;3.00;;;2.38;;
20535;SDS011;10426;49.420;8.390;2023-11-21T13:02:52;2.85;;;2.55;;
20535;SDS011;10426;49.420;8.390;2023-11-21T13:05:28;3.97;;;2.50;;
20535;SDS011;10426;49.420;8.390;2023-11-21T13:07:55;3.78;;;2.40;;
20535;SDS011;10426;49.420;8.390;2023-11-21T13:10:24;2.33;;;2.22;;
20535;SDS011;10426;49.420;8.390;2023-11-21T13:12:55;2.17;;;2.05;;
20535;SDS011;10426;49.420;8.390;2023-11-21T13:15:23;3.10;;;2.50;;
20535;SDS011;10426;49.420;8.390;2023-11-21T13:17:50;4.00;;;2.50;;
20535;SDS011;10426;49.420;8.390;2023-11-21T13:20:19;4.15;;;2.58;;
20535;SDS011;10426;49.420;8.390;2023-11-21T13:22:49;3.25;;;2.90;;
20535;SDS011;10426;49.420;8.390;2023-11-21T13:25:17;4.07;;;3.35;;
20535;SDS011;10426;49.420;8.390;2023-11-21T13:27:46;6.97;;;5.32;;
20535;SDS011;10426;49.420;8.390;2023-11-21T13:30:13;13.45;;;8.20;;
20535;SDS011;10426;49.420;8.390;2023-11-21T13:32:48;8.88;;;5.70;;
20535;SDS011;10426;49.420;8.390;2023-11-21T13:35:16;3.60;;;3.25;;
20535;SDS011;10426;49.420;8.390;2023-11-21T13:37:47;2.75;;;2.47;;
20535;SDS011;10426;49.420;8.390;2023-11-21T13:40:14;3.83;;;2.67;;
20535;SDS011;10426;49.420;8.390;2023-11-21T13:42:46;5.70;;;2.90;;
20535;SDS011;10426;49.420;8.390;2023-11-21T13:45:13;3.10;;;2.80;;
20535;SDS011;10426;49.420;8.390;2023-11-21T13:47:40;3.78;;;2.53;;
20535;SDS011;10426;49.420;8.390;2023-11-21T13:50:07;2.63;;;2.25;;
20535;SDS011;10426;49.420;8.390;2023-11-21T13:52:42;3.77;;;2.40;;
20535;SDS011;10426;49.420;8.390;2023-11-21T13:55:09;3.42;;;2.70;;
20535;SDS011;10426;49.420;8.390;2023-11-21T13:57:40;4.18;;;2.90;;
20535;SDS011;10426;49.420;8.390;2023-11-21T14:00:12;4.30;;;2.30;;
20535;SDS011;10426;49.420;8.390;2023-11-21T14:02:59;4.38;;;2.50;;
20535;SDS011;10426;49.420;8.390;2023-11-21T14:05:26;3.33;;;2.60;;
20535;SDS011;10426;49.420;8.390;2023-11-21T14:07:54;3.20;;;2.60;;
20535;SDS011;10426;49.420;8.390;2023-11-21T14:10:27;4.22;;;2.72;;
20535;SDS011;10426;49.420;8.390;2023-11-21T14:13:02;3.10;;;2.50;;
20535;SDS011;10426;49.420;8.390;2023-11-21T14:15:30;3.05;;;2.70;;
20535;SDS011;10426;49.420;8.390;2023-11-21T14:17:58;3.80;;;2.40;;
20535;SDS011;10426;49.420;8.390;2023-11-21T14:20:28;3.75;;;2.60;;
20535;SDS011;10426;49.420;8.390;2023-11-21T14:22:55;7.85;;;3.10;;
20535;SDS011;10426;49.420;8.390;2023-11-21T14:25:22;4.28;;;3.40;;
20535;SDS011;10426;49.420;8.390;2023-11-21T14:27:49;4.78;;;3.70;;
20535;SDS011;10426;49.420;8.390;2023-11-21T14:30:16;4.38;;;3.58;;
20535;SDS011;10426;49.420;8.390;2023-11-21T14:32:46;6.37;;;3.60;;
20535;SDS011;10426;49.420;8.390;2023-11-21T14:35:12;3.30;;;3.00;;
20535;SDS011;10426;49.420;8.390;2023-11-21T14:37:39;4.97;;;3.00;;
20535;SDS011;10426;49.420;8.390;2023-11-21T14:40:06;5.22;;;2.83;;
20535;SDS011;10426;49.420;8.390;2023-11-21T14:42:34;7.05;;;4.68;;
20535;SDS011;10426;49.420;8.390;2023-11-21T14:45:03;21.25;;;14.25;;
20535;SDS011;10426;49.420;8.390;2023-11-21T14:47:32;11.60;;;7.43;;